createdAt,value
2019-01-31T00:00:07.945Z,55.78
2019-01-31T00:01:07.942Z,58.42
2019-01-31T00:02:07.944Z,59.27
2019-01-31T00:03:07.942Z,60.30
2019-01-31T00:04:07.942Z,60.77
2019-01-31T00:05:07.941Z,61.62
2019-01-31T00:06:07.942Z,61.90
2019-01-31T00:07:07.947Z,62.37
2019-01-31T00:08:07.941Z,63.03
2019-01-31T00:09:07.940Z,64.07
2019-01-31T00:10:07.954Z,64.54
2019-01-31T00:11:07.939Z,64.92
2019-01-31T00:12:07.940Z,64.92
2019-01-31T00:13:07.938Z,64.45
2019-01-31T00:14:07.938Z,64.45
2019-01-31T00:15:07.947Z,64.45
2019-01-31T00:16:07.941Z,64.26
2019-01-31T00:17:07.937Z,64.35
2019-01-31T00:18:07.938Z,64.92
2019-01-31T00:19:07.939Z,64.73
2019-01-31T00:20:07.939Z,65.11
2019-01-31T00:21:07.943Z,65.01
2019-01-31T00:22:07.936Z,65.39
2019-01-31T00:23:07.939Z,65.39
2019-01-31T00:24:07.939Z,65.30
2019-01-31T00:25:07.936Z,64.92
2019-01-31T00:26:07.937Z,65.30
2019-01-31T00:27:07.935Z,64.45
2019-01-31T00:28:07.934Z,64.35
2019-01-31T00:29:07.935Z,62.47
2019-01-31T00:30:07.934Z,60.86
2019-01-31T00:31:07.937Z,59.92
2019-01-31T00:32:07.936Z,58.98
2019-01-31T00:33:07.933Z,59.36
2019-01-31T00:34:07.934Z,60.96
2019-01-31T00:35:07.936Z,62.28
2019-01-31T00:36:07.933Z,63.13
2019-01-31T00:37:07.932Z,64.07
2019-01-31T00:38:07.935Z,64.92
2019-01-31T00:39:07.933Z,64.35
2019-01-31T00:40:07.935Z,64.64
2019-01-31T00:41:07.932Z,64.54
2019-01-31T00:42:07.935Z,65.39
2019-01-31T00:43:07.934Z,65.39
2019-01-31T00:44:07.932Z,65.67
2019-01-31T00:45:07.931Z,65.67
2019-01-31T00:46:07.931Z,65.48
2019-01-31T00:47:07.931Z,65.20
2019-01-31T00:48:07.932Z,65.20
2019-01-31T00:49:07.932Z,65.01
2019-01-31T00:50:07.934Z,64.64
2019-01-31T00:51:07.973Z,64.35
2019-01-31T00:52:07.930Z,63.41
2019-01-31T00:53:07.942Z,63.69
2019-01-31T00:54:07.929Z,63.32
2019-01-31T00:55:07.930Z,63.22
2019-01-31T00:56:07.927Z,63.32
2019-01-31T00:57:07.932Z,63.50
2019-01-31T00:58:07.928Z,63.88
2019-01-31T00:59:07.929Z,63.88
2019-01-31T01:00:07.930Z,63.98
2019-01-31T01:01:07.928Z,63.32
2019-01-31T01:02:07.933Z,62.65
2019-01-31T01:03:07.936Z,61.99
2019-01-31T01:04:07.966Z,60.86
2019-01-31T01:05:07.934Z,60.96
2019-01-31T01:06:07.929Z,60.77
2019-01-31T01:07:07.928Z,60.58
2019-01-31T01:08:07.928Z,60.02
2019-01-31T01:09:08.243Z,59.92
2019-01-31T01:10:07.926Z,60.02
2019-01-31T01:11:07.927Z,59.92
2019-01-31T01:12:07.927Z,60.02
2019-01-31T01:13:07.966Z,60.86
2019-01-31T01:14:07.925Z,61.62
2019-01-31T01:15:07.926Z,61.99
2019-01-31T01:16:07.928Z,62.28
2019-01-31T01:17:07.924Z,62.47
2019-01-31T01:18:07.933Z,63.41
2019-01-31T01:19:07.924Z,64.64
2019-01-31T01:20:07.927Z,65.86
2019-01-31T01:21:07.926Z,66.71
2019-01-31T01:22:07.925Z,67.74
2019-01-31T01:23:07.925Z,68.21
2019-01-31T01:24:07.927Z,69.91
2019-01-31T01:25:07.923Z,71.42
2019-01-31T01:26:07.925Z,72.55
2019-01-31T01:27:07.923Z,73.87
2019-01-31T01:28:07.924Z,74.90
2019-01-31T01:29:07.924Z,75.09
2019-01-31T01:30:07.927Z,75.56
2019-01-31T01:31:07.925Z,75.66
2019-01-31T01:32:07.922Z,76.32
2019-01-31T01:33:07.922Z,76.13
2019-01-31T01:34:07.923Z,76.70
2019-01-31T01:35:07.922Z,76.89
2019-01-31T01:36:07.922Z,77.55
2019-01-31T01:37:07.921Z,77.26
2019-01-31T01:38:07.919Z,77.26
2019-01-31T01:39:18.674Z,77.17
2019-01-31T01:40:07.917Z,76.89
2019-01-31T01:41:07.918Z,76.89
2019-01-31T01:42:07.917Z,76.70
2019-01-31T01:43:07.916Z,76.04
2019-01-31T01:44:07.916Z,75.62
2019-01-31T01:45:07.918Z,75.66
2019-01-31T01:46:07.918Z,75.19
2019-01-31T01:47:07.916Z,75.19
2019-01-31T01:48:07.917Z,74.24
2019-01-31T01:49:07.915Z,73.87
2019-01-31T01:50:07.924Z,73.21
2019-01-31T01:51:07.918Z,73.39
2019-01-31T01:52:07.915Z,72.92
2019-01-31T01:53:07.916Z,73.11
2019-01-31T01:54:07.915Z,72.64
2019-01-31T01:55:07.913Z,72.27
2019-01-31T01:56:07.913Z,72.17
2019-01-31T01:57:07.912Z,72.08
2019-01-31T01:58:07.911Z,71.95
2019-01-31T01:59:07.910Z,71.33
2019-01-31T02:00:07.912Z,70.86
2019-01-31T02:01:07.912Z,70.10
2019-01-31T02:02:07.913Z,68.97
2019-01-31T02:03:07.913Z,69.35
2019-01-31T02:04:07.912Z,69.82
2019-01-31T02:05:07.911Z,69.91
2019-01-31T02:06:07.907Z,70.10
2019-01-31T02:07:07.907Z,70.76
2019-01-31T02:08:07.908Z,70.95
2019-01-31T02:09:07.907Z,71.61
2019-01-31T02:10:07.908Z,71.42
2019-01-31T02:11:07.908Z,71.14
2019-01-31T02:12:07.910Z,70.67
2019-01-31T02:13:07.906Z,70.67
2019-01-31T02:14:07.902Z,70.19
2019-01-31T02:15:07.961Z,70.86
2019-01-31T02:16:07.903Z,71.61
2019-01-31T02:17:07.903Z,71.42
2019-01-31T02:18:07.902Z,71.61
2019-01-31T02:19:07.900Z,71.51
2019-01-31T02:20:07.902Z,71.70
2019-01-31T02:21:07.898Z,72.36
2019-01-31T02:22:07.898Z,71.98
2019-01-31T02:23:07.899Z,71.61
2019-01-31T02:24:07.897Z,71.33
2019-01-31T02:25:07.898Z,70.95
2019-01-31T02:26:07.899Z,70.76
2019-01-31T02:27:07.896Z,70.86
2019-01-31T02:28:07.896Z,71.04
2019-01-31T02:29:07.894Z,71.70
2019-01-31T02:30:07.897Z,71.89
2019-01-31T02:31:07.894Z,72.64
2019-01-31T02:32:07.895Z,73.11
2019-01-31T02:33:07.897Z,73.87
2019-01-31T02:34:07.893Z,74.24
2019-01-31T02:35:07.892Z,75.66
2019-01-31T02:36:07.890Z,76.98
2019-01-31T02:37:07.891Z,77.73
2019-01-31T02:38:07.896Z,77.83
2019-01-31T02:39:07.894Z,79.14
2019-01-31T02:40:07.891Z,80.18
2019-01-31T02:41:07.899Z,81.03
2019-01-31T02:42:07.890Z,80.46
2019-01-31T02:43:07.894Z,80.56
2019-01-31T02:44:07.891Z,80.56
2019-01-31T02:45:07.887Z,80.27
2019-01-31T02:46:07.886Z,80.18
2019-01-31T02:47:07.889Z,80.37
2019-01-31T02:48:07.886Z,79.90
2019-01-31T02:49:07.893Z,79.71
2019-01-31T02:50:07.886Z,79.99
2019-01-31T02:51:07.885Z,81.03
2019-01-31T02:52:07.884Z,81.69
2019-01-31T02:53:07.884Z,82.54
2019-01-31T02:54:07.886Z,82.92
2019-01-31T02:55:07.885Z,83.48
2019-01-31T02:56:07.882Z,83.20
2019-01-31T02:57:07.883Z,84.05
2019-01-31T02:58:07.883Z,85.46
2019-01-31T02:59:07.886Z,85.36
2019-01-31T03:00:07.880Z,85.55
2019-01-31T03:01:07.881Z,85.60
2019-01-31T03:02:07.879Z,84.85
2019-01-31T03:03:07.878Z,84.47
2019-01-31T03:04:07.879Z,84.09
2019-01-31T03:05:07.877Z,84.38
2019-01-31T03:06:07.878Z,84.38
2019-01-31T03:07:07.878Z,84.19
2019-01-31T03:08:07.880Z,84.94
2019-01-31T03:09:07.880Z,84.94
2019-01-31T03:10:07.875Z,84.94
2019-01-31T03:11:07.878Z,85.04
2019-01-31T03:12:07.874Z,85.04
2019-01-31T03:13:07.880Z,84.75
2019-01-31T03:14:10.214Z,85.70
2019-01-31T03:15:07.872Z,85.79
2019-01-31T03:16:07.876Z,86.64
2019-01-31T03:17:07.870Z,86.45
2019-01-31T03:18:07.875Z,86.54
2019-01-31T03:19:07.874Z,86.73
2019-01-31T03:20:07.870Z,86.83
2019-01-31T03:21:07.883Z,86.73
2019-01-31T03:22:07.869Z,86.83
2019-01-31T03:23:07.866Z,87.02
2019-01-31T03:24:07.866Z,88.24
2019-01-31T03:25:07.870Z,89.09
2019-01-31T03:26:07.866Z,89.56
2019-01-31T03:27:07.867Z,90.22
2019-01-31T03:28:07.865Z,91.35
2019-01-31T03:29:07.864Z,91.25
2019-01-31T03:30:07.864Z,91.63
2019-01-31T03:31:07.863Z,92.19
2019-01-31T03:32:07.863Z,93.04
2019-01-31T03:33:07.935Z,93.42
2019-01-31T03:34:07.859Z,93.98
2019-01-31T03:35:07.859Z,94.45
2019-01-31T03:36:07.857Z,94.55
2019-01-31T03:37:07.857Z,94.27
2019-01-31T03:38:07.857Z,93.89
2019-01-31T03:39:07.856Z,93.51
2019-01-31T03:40:07.866Z,92.85
2019-01-31T03:41:07.853Z,93.04
2019-01-31T03:42:07.867Z,93.70
2019-01-31T03:43:07.855Z,93.89
2019-01-31T03:44:07.849Z,93.89
2019-01-31T03:45:07.852Z,94.08
2019-01-31T03:46:07.852Z,94.45
2019-01-31T03:47:07.849Z,95.49
2019-01-31T03:48:07.847Z,96.53
2019-01-31T03:49:07.846Z,96.44
2019-01-31T03:50:07.846Z,96.72
2019-01-31T03:51:07.843Z,96.62
2019-01-31T03:52:07.842Z,96.25
2019-01-31T03:53:07.841Z,96.53
2019-01-31T03:54:07.840Z,96.44
2019-01-31T03:55:07.840Z,95.59
2019-01-31T03:56:07.845Z,95.11
2019-01-31T03:57:07.836Z,94.93
2019-01-31T03:58:07.841Z,95.02
2019-01-31T03:59:07.835Z,94.74
2019-01-31T04:00:07.849Z,94.83
2019-01-31T04:01:07.830Z,95.02
2019-01-31T04:02:07.831Z,94.74
2019-01-31T04:03:07.828Z,94.08
2019-01-31T04:04:07.825Z,93.70
2019-01-31T04:05:07.827Z,92.10
2019-01-31T04:06:07.829Z,92.10
2019-01-31T04:07:07.824Z,90.31
2019-01-31T04:08:07.820Z,89.37
2019-01-31T04:09:07.898Z,89.28
2019-01-31T04:10:18.385Z,89.37
2019-01-31T04:11:07.819Z,89.37
2019-01-31T04:12:07.818Z,89.75
2019-01-31T04:13:07.818Z,89.18
2019-01-31T04:14:07.815Z,88.90
2019-01-31T04:15:07.813Z,88.71
2019-01-31T04:16:07.812Z,88.52
2019-01-31T04:17:07.814Z,87.58
2019-01-31T04:18:07.814Z,87.58
2019-01-31T04:19:07.809Z,87.96
2019-01-31T04:20:07.844Z,88.15
2019-01-31T04:21:07.974Z,87.77
2019-01-31T04:22:07.813Z,88.05
2019-01-31T04:23:07.807Z,87.02
2019-01-31T04:24:07.804Z,87.20
2019-01-31T04:25:07.812Z,87.20
2019-01-31T04:26:07.805Z,86.73
2019-01-31T04:27:07.800Z,86.17
2019-01-31T04:28:07.807Z,85.32
2019-01-31T04:29:07.798Z,84.28
2019-01-31T04:30:07.800Z,84.38
2019-01-31T04:31:07.809Z,84.19
2019-01-31T04:32:07.798Z,85.27
2019-01-31T04:33:07.793Z,84.85
2019-01-31T04:34:07.800Z,85.13
2019-01-31T04:35:07.800Z,84.09
2019-01-31T04:36:07.807Z,84.38
2019-01-31T04:37:07.791Z,84.85
2019-01-31T04:38:07.791Z,85.04
2019-01-31T04:39:07.792Z,85.51
2019-01-31T04:40:07.789Z,86.49
2019-01-31T04:41:07.785Z,89.47
2019-01-31T04:42:07.785Z,91.72
2019-01-31T04:43:07.786Z,92.47
2019-01-31T04:44:07.790Z,93.51
2019-01-31T04:45:07.787Z,93.98
2019-01-31T04:46:07.784Z,95.11
2019-01-31T04:47:07.784Z,95.02
2019-01-31T04:48:07.781Z,94.45
2019-01-31T04:49:07.781Z,95.30
2019-01-31T04:50:07.777Z,94.83
2019-01-31T04:51:07.777Z,94.64
2019-01-31T04:52:07.775Z,93.70
2019-01-31T04:53:07.774Z,92.95
2019-01-31T04:54:07.779Z,92.85
2019-01-31T04:55:07.775Z,92.66
2019-01-31T04:56:07.770Z,92.38
2019-01-31T04:57:07.773Z,92.19
2019-01-31T04:58:07.775Z,92.38
2019-01-31T04:59:07.769Z,93.32
2019-01-31T05:00:07.767Z,94.08
2019-01-31T05:01:07.768Z,95.40
2019-01-31T05:02:07.800Z,96.15
2019-01-31T05:03:07.773Z,96.72
2019-01-31T05:04:07.772Z,96.91
2019-01-31T05:05:07.764Z,98.03
2019-01-31T05:06:07.777Z,98.03
2019-01-31T05:07:07.763Z,98.32
2019-01-31T05:08:07.761Z,98.13
2019-01-31T05:09:07.763Z,98.13
2019-01-31T05:10:07.759Z,97.47
2019-01-31T05:11:07.759Z,97.09
2019-01-31T05:12:07.758Z,97.56
2019-01-31T05:13:07.759Z,97.28
2019-01-31T05:14:07.756Z,96.72
2019-01-31T05:15:07.755Z,96.25
2019-01-31T05:16:07.754Z,96.34
2019-01-31T05:17:07.752Z,95.68
2019-01-31T05:18:07.757Z,95.59
2019-01-31T05:19:07.751Z,95.11
2019-01-31T05:20:07.772Z,94.83
2019-01-31T05:21:07.753Z,93.98
2019-01-31T05:22:07.752Z,93.61
2019-01-31T05:23:07.747Z,93.70
2019-01-31T05:24:07.746Z,93.70
2019-01-31T05:25:07.750Z,93.89
2019-01-31T05:26:07.749Z,93.51
2019-01-31T05:27:07.745Z,94.17
2019-01-31T05:28:07.747Z,94.83
2019-01-31T05:29:07.744Z,94.64
2019-01-31T05:30:07.750Z,94.55
2019-01-31T05:31:07.744Z,94.55
2019-01-31T05:32:07.740Z,94.93
2019-01-31T05:33:07.741Z,94.93
2019-01-31T05:34:07.740Z,94.27
2019-01-31T05:35:07.738Z,93.89
2019-01-31T05:36:07.742Z,94.93
2019-01-31T05:37:07.738Z,95.96
2019-01-31T05:38:07.740Z,96.15
2019-01-31T05:39:07.734Z,96.81
2019-01-31T05:40:07.748Z,96.53
2019-01-31T05:41:07.734Z,97.19
2019-01-31T05:42:07.732Z,97.47
2019-01-31T05:43:07.734Z,97.56
2019-01-31T05:44:07.730Z,97.19
2019-01-31T05:45:07.728Z,96.91
2019-01-31T05:46:07.727Z,96.44
2019-01-31T05:47:07.728Z,95.59
2019-01-31T05:48:07.727Z,95.68
2019-01-31T05:49:07.724Z,95.30
2019-01-31T05:50:07.723Z,94.93
2019-01-31T05:51:07.722Z,95.49
2019-01-31T05:52:07.720Z,95.40
2019-01-31T05:53:07.731Z,95.77
2019-01-31T05:54:07.725Z,95.11
2019-01-31T05:55:07.725Z,94.93
2019-01-31T05:56:07.719Z,93.98
2019-01-31T05:57:07.724Z,93.42
2019-01-31T05:58:07.715Z,92.95
2019-01-31T05:59:07.715Z,92.85
2019-01-31T06:00:07.715Z,93.13
2019-01-31T06:01:07.716Z,93.51
2019-01-31T06:02:07.715Z,93.04
2019-01-31T06:03:07.718Z,93.13
2019-01-31T06:04:07.709Z,93.13
2019-01-31T06:05:07.708Z,93.13
2019-01-31T06:06:07.718Z,93.32
2019-01-31T06:07:11.214Z,93.23
2019-01-31T06:08:07.710Z,93.32
2019-01-31T06:09:07.706Z,92.95
2019-01-31T06:10:07.714Z,93.32
2019-01-31T06:11:08.103Z,92.52
2019-01-31T06:12:07.705Z,92.38
2019-01-31T06:13:07.705Z,92.71
2019-01-31T06:14:07.703Z,92.80
2019-01-31T06:15:07.701Z,92.99
2019-01-31T06:16:07.699Z,92.99
2019-01-31T06:17:07.700Z,92.80
2019-01-31T06:18:07.708Z,93.47
2019-01-31T06:19:07.709Z,93.37
2019-01-31T06:20:07.698Z,94.03
2019-01-31T06:21:07.698Z,94.13
2019-01-31T06:22:07.701Z,94.13
2019-01-31T06:23:07.694Z,94.69
2019-01-31T06:24:07.694Z,94.79
2019-01-31T06:25:07.695Z,94.93
2019-01-31T06:26:07.700Z,95.59
2019-01-31T06:27:07.694Z,96.15
2019-01-31T06:28:07.697Z,96.44
2019-01-31T06:29:07.690Z,96.44
2019-01-31T06:30:07.690Z,96.34
2019-01-31T06:31:07.689Z,97.09
2019-01-31T06:32:07.698Z,97.19
2019-01-31T06:33:07.694Z,97.19
2019-01-31T06:34:07.686Z,96.44
2019-01-31T06:35:07.686Z,96.81
2019-01-31T06:36:07.684Z,96.34
2019-01-31T06:37:07.684Z,96.91
2019-01-31T06:38:07.685Z,97.38
2019-01-31T06:39:07.685Z,97.75
2019-01-31T06:40:07.681Z,97.28
2019-01-31T06:41:18.039Z,97.56
2019-01-31T06:42:07.684Z,96.91
2019-01-31T06:43:07.679Z,97.19
2019-01-31T06:44:07.678Z,97.47
2019-01-31T06:45:07.677Z,97.66
2019-01-31T06:46:07.679Z,97.28
2019-01-31T06:47:07.681Z,97.38
2019-01-31T06:48:07.678Z,97.42
2019-01-31T06:49:07.676Z,97.75
2019-01-31T06:50:07.676Z,98.18
2019-01-31T06:51:07.679Z,97.42
2019-01-31T06:52:07.675Z,97.61
2019-01-31T06:53:07.674Z,97.61
2019-01-31T06:54:07.888Z,96.77
2019-01-31T06:55:07.682Z,96.39
2019-01-31T06:56:07.670Z,96.48
2019-01-31T06:57:07.675Z,97.24
2019-01-31T06:58:07.718Z,97.52
2019-01-31T06:59:07.671Z,97.52
2019-01-31T07:00:07.667Z,97.61
2019-01-31T07:01:07.669Z,97.05
2019-01-31T07:02:07.665Z,97.05
2019-01-31T07:03:07.664Z,97.14
2019-01-31T07:04:07.667Z,97.24
2019-01-31T07:05:07.663Z,97.61
2019-01-31T07:06:07.662Z,97.52
2019-01-31T07:07:07.770Z,97.71
2019-01-31T07:08:07.665Z,97.61
2019-01-31T07:09:07.661Z,97.71
2019-01-31T07:10:07.663Z,97.14
2019-01-31T07:11:07.661Z,96.95
2019-01-31T07:12:07.658Z,96.48
2019-01-31T07:13:07.664Z,97.42
2019-01-31T07:14:07.659Z,97.05
2019-01-31T07:15:07.661Z,97.05
2019-01-31T07:16:07.656Z,96.77
2019-01-31T07:17:07.655Z,96.95
2019-01-31T07:18:07.657Z,96.39
2019-01-31T07:19:07.653Z,96.67
2019-01-31T07:20:07.663Z,96.77
2019-01-31T07:21:07.652Z,96.77
2019-01-31T07:22:07.652Z,96.77
2019-01-31T07:23:07.654Z,96.77
2019-01-31T07:24:07.734Z,96.86
2019-01-31T07:25:07.651Z,96.48
2019-01-31T07:26:07.653Z,96.39
2019-01-31T07:27:07.653Z,96.67
2019-01-31T07:28:07.651Z,96.39
2019-01-31T07:29:07.648Z,96.67
2019-01-31T07:30:07.650Z,96.86
2019-01-31T07:31:07.651Z,96.48
2019-01-31T07:32:07.646Z,95.92
2019-01-31T07:33:07.646Z,96.01
2019-01-31T07:34:07.646Z,95.82
2019-01-31T07:35:07.650Z,95.54
2019-01-31T07:36:07.651Z,95.26
2019-01-31T07:37:07.647Z,95.54
2019-01-31T07:38:07.647Z,95.73
2019-01-31T07:39:07.645Z,95.64
2019-01-31T07:40:07.646Z,95.73
2019-01-31T07:41:07.643Z,95.35
2019-01-31T07:42:07.650Z,95.07
2019-01-31T07:43:07.647Z,95.07
2019-01-31T07:44:07.644Z,95.73
2019-01-31T07:45:07.652Z,95.54
2019-01-31T07:46:07.644Z,96.20
2019-01-31T07:47:07.647Z,96.39
2019-01-31T07:48:07.641Z,96.77
2019-01-31T07:49:07.641Z,96.86
2019-01-31T07:50:07.641Z,96.58
2019-01-31T07:51:07.643Z,96.86
2019-01-31T07:52:07.639Z,96.67
2019-01-31T07:53:07.639Z,96.30
2019-01-31T07:54:07.640Z,96.77
2019-01-31T07:55:07.639Z,96.30
2019-01-31T07:56:07.641Z,96.39
2019-01-31T07:57:07.639Z,96.67
2019-01-31T07:58:07.644Z,96.86
2019-01-31T07:59:07.641Z,96.20
2019-01-31T08:00:07.638Z,96.58
2019-01-31T08:01:07.636Z,96.30
2019-01-31T08:02:07.636Z,96.11
2019-01-31T08:03:07.637Z,95.54
2019-01-31T08:04:07.638Z,95.73
2019-01-31T08:05:07.637Z,95.45
2019-01-31T08:06:07.638Z,95.35
2019-01-31T08:07:07.637Z,95.45
2019-01-31T08:08:07.635Z,97.24
2019-01-31T08:09:07.632Z,97.24
2019-01-31T08:10:07.633Z,97.24
2019-01-31T08:11:07.633Z,97.80
2019-01-31T08:12:07.631Z,98.55
2019-01-31T08:13:07.635Z,98.08
2019-01-31T08:14:07.635Z,97.42
2019-01-31T08:15:07.834Z,97.14
2019-01-31T08:16:07.632Z,97.42
2019-01-31T08:17:07.634Z,97.14
2019-01-31T08:18:07.633Z,97.61
2019-01-31T08:19:07.634Z,97.71
2019-01-31T08:20:07.629Z,97.61
2019-01-31T08:21:07.629Z,97.99
2019-01-31T08:22:07.632Z,97.14
2019-01-31T08:23:07.632Z,97.14
2019-01-31T08:24:09.558Z,96.30
2019-01-31T08:25:07.632Z,96.25
2019-01-31T08:26:07.634Z,95.40
2019-01-31T08:27:07.631Z,94.65
2019-01-31T08:28:07.636Z,94.17
2019-01-31T08:29:07.630Z,92.38
2019-01-31T08:30:07.631Z,92.19
2019-01-31T08:31:07.631Z,91.82
2019-01-31T08:32:07.632Z,92.19
2019-01-31T08:33:07.635Z,92.66
2019-01-31T08:34:07.634Z,92.19
2019-01-31T08:35:07.632Z,91.44
2019-01-31T08:36:07.633Z,92.19
2019-01-31T08:37:07.632Z,91.35
2019-01-31T08:38:07.635Z,91.44
2019-01-31T08:39:07.635Z,90.97
2019-01-31T08:40:07.642Z,90.64
2019-01-31T08:41:07.636Z,88.84
2019-01-31T08:42:07.636Z,87.43
2019-01-31T08:43:07.638Z,87.05
2019-01-31T08:44:07.641Z,86.68
2019-01-31T08:45:07.639Z,88.56
2019-01-31T08:46:07.641Z,88.94
2019-01-31T08:47:07.645Z,88.47
2019-01-31T08:48:07.645Z,89.13
2019-01-31T08:49:07.646Z,87.90
2019-01-31T08:50:07.650Z,88.47
2019-01-31T08:51:07.649Z,86.40
2019-01-31T08:52:07.652Z,86.02
2019-01-31T08:53:07.670Z,84.13
2019-01-31T08:54:07.658Z,86.30
2019-01-31T08:55:07.657Z,88.18
2019-01-31T08:56:07.657Z,87.99
2019-01-31T08:57:07.665Z,89.13
2019-01-31T08:58:07.661Z,88.75
2019-01-31T08:59:07.663Z,88.28
2019-01-31T09:00:07.665Z,89.13
2019-01-31T09:01:07.668Z,89.13
2019-01-31T09:02:07.672Z,88.09
2019-01-31T09:03:07.678Z,89.13
2019-01-31T09:04:07.673Z,89.03
2019-01-31T09:05:07.676Z,89.69
2019-01-31T09:06:07.680Z,92.52
2019-01-31T09:07:07.685Z,92.61
2019-01-31T09:08:07.683Z,94.51
2019-01-31T09:09:07.694Z,97.52
2019-01-31T09:10:07.690Z,96.30
2019-01-31T09:11:07.692Z,94.03
2019-01-31T09:12:15.006Z,92.24
2019-01-31T09:13:07.691Z,89.13
2019-01-31T09:14:07.698Z,89.60
2019-01-31T09:15:07.699Z,90.02
2019-01-31T09:16:07.700Z,90.31
2019-01-31T09:17:07.703Z,91.39
2019-01-31T09:18:07.706Z,88.65
2019-01-31T09:19:07.709Z,88.56
2019-01-31T09:20:07.713Z,90.17
2019-01-31T09:21:07.715Z,93.37
2019-01-31T09:22:07.717Z,92.80
2019-01-31T09:23:07.718Z,93.65
2019-01-31T09:24:07.723Z,93.18
2019-01-31T09:25:07.724Z,94.03
2019-01-31T09:26:07.726Z,93.37
2019-01-31T09:27:07.732Z,90.64
2019-01-31T09:28:07.739Z,89.41
2019-01-31T09:29:07.735Z,88.28
2019-01-31T09:30:07.738Z,92.80
2019-01-31T09:31:07.742Z,94.03
2019-01-31T09:32:07.745Z,94.22
2019-01-31T09:33:07.744Z,93.13
2019-01-31T09:34:07.748Z,93.18
2019-01-31T09:35:07.752Z,94.32
2019-01-31T09:36:07.753Z,93.09
2019-01-31T09:37:07.756Z,92.14
2019-01-31T09:38:07.761Z,91.77
2019-01-31T09:39:07.761Z,94.22
2019-01-31T09:40:07.765Z,94.60
2019-01-31T09:41:08.505Z,95.26
2019-01-31T09:42:07.769Z,95.45
2019-01-31T09:43:07.772Z,95.73
2019-01-31T09:44:07.778Z,96.30
2019-01-31T09:45:07.779Z,96.91
2019-01-31T09:46:07.786Z,95.03
2019-01-31T09:47:07.783Z,92.52
2019-01-31T09:48:07.785Z,91.02
2019-01-31T09:49:07.789Z,92.52
2019-01-31T09:50:07.794Z,90.55
2019-01-31T09:51:07.800Z,91.58
2019-01-31T09:52:07.800Z,91.02
2019-01-31T09:53:07.799Z,90.83
2019-01-31T09:54:07.807Z,90.45
2019-01-31T09:55:07.808Z,90.78
2019-01-31T09:56:07.812Z,89.88
2019-01-31T09:57:07.812Z,89.13
2019-01-31T09:58:07.816Z,89.32
2019-01-31T09:59:07.818Z,90.78
2019-01-31T10:00:07.821Z,92.00
2019-01-31T10:01:07.824Z,90.50
2019-01-31T10:02:07.827Z,90.68
2019-01-31T10:03:07.831Z,87.66
2019-01-31T10:04:07.866Z,85.68
2019-01-31T10:05:07.838Z,85.02
2019-01-31T10:06:07.842Z,86.11
2019-01-31T10:07:07.843Z,87.43
2019-01-31T10:08:07.851Z,90.21
2019-01-31T10:09:07.854Z,88.75
2019-01-31T10:10:07.859Z,88.23
2019-01-31T10:11:07.873Z,85.59
2019-01-31T10:12:07.902Z,85.21
2019-01-31T10:13:07.865Z,84.36
2019-01-31T10:14:07.926Z,84.74
2019-01-31T10:15:07.874Z,84.69
2019-01-31T10:16:07.981Z,81.85
2019-01-31T10:17:07.905Z,79.97
2019-01-31T10:18:08.090Z,81.05
2019-01-31T10:19:07.901Z,83.14
2019-01-31T10:20:07.938Z,85.68
2019-01-31T10:21:07.970Z,84.64
2019-01-31T10:22:07.997Z,82.14
2019-01-31T10:23:07.945Z,82.80
2019-01-31T10:24:08.047Z,79.30
2019-01-31T10:25:07.912Z,78.64
2019-01-31T10:26:07.915Z,79.59
2019-01-31T10:27:07.919Z,78.36
2019-01-31T10:28:07.920Z,78.60
2019-01-31T10:29:07.927Z,82.57
2019-01-31T10:30:07.929Z,82.19
2019-01-31T10:31:07.938Z,81.85
2019-01-31T10:32:07.938Z,80.06
2019-01-31T10:33:07.943Z,79.27
2019-01-31T10:34:07.949Z,80.68
2019-01-31T10:35:07.953Z,83.04
2019-01-31T10:36:07.956Z,81.10
2019-01-31T10:37:07.961Z,80.21
2019-01-31T10:38:07.964Z,81.53
2019-01-31T10:39:07.970Z,80.77
2019-01-31T10:40:07.973Z,79.40
2019-01-31T10:41:07.979Z,78.55
2019-01-31T10:42:07.982Z,76.95
2019-01-31T10:43:07.995Z,76.76
2019-01-31T10:44:07.993Z,76.95
2019-01-31T10:45:07.997Z,74.71
2019-01-31T10:46:08.001Z,74.11
2019-01-31T10:47:08.009Z,74.71
2019-01-31T10:48:08.011Z,74.81
2019-01-31T10:49:08.017Z,74.00
2019-01-31T10:50:08.025Z,70.59
2019-01-31T10:51:08.028Z,68.01
2019-01-31T10:52:08.032Z,67.44
2019-01-31T10:53:08.036Z,68.76
2019-01-31T10:54:08.041Z,68.48
2019-01-31T10:55:08.051Z,70.75
2019-01-31T10:56:08.055Z,67.95
2019-01-31T10:57:08.058Z,66.41
2019-01-31T10:58:08.119Z,65.93
2019-01-31T10:59:08.069Z,66.69
2019-01-31T11:00:08.077Z,67.50
2019-01-31T11:01:08.079Z,68.54
2019-01-31T11:02:08.086Z,69.86
2019-01-31T11:03:08.091Z,69.86
2019-01-31T11:04:08.099Z,72.41
2019-01-31T11:05:08.103Z,73.26
2019-01-31T11:06:08.113Z,73.58
2019-01-31T11:07:08.117Z,73.45
2019-01-31T11:08:08.120Z,73.74
2019-01-31T11:09:08.124Z,74.77
2019-01-31T11:10:08.131Z,75.19
2019-01-31T11:11:08.136Z,73.30
2019-01-31T11:12:08.147Z,70.56
2019-01-31T11:13:08.147Z,67.91
2019-01-31T11:14:08.155Z,68.67
2019-01-31T11:15:08.160Z,67.41
2019-01-31T11:16:08.167Z,67.79
2019-01-31T11:17:08.171Z,72.13
2019-01-31T11:18:08.179Z,72.13
2019-01-31T11:19:12.473Z,71.75
2019-01-31T11:20:08.187Z,71.75
2019-01-31T11:21:08.194Z,70.43
2019-01-31T11:22:08.201Z,69.96
2019-01-31T11:23:08.208Z,71.31
2019-01-31T11:24:08.321Z,70.03
2019-01-31T11:25:08.217Z,67.07
2019-01-31T11:26:08.223Z,65.74
2019-01-31T11:27:08.228Z,66.91
2019-01-31T11:28:08.237Z,65.68
2019-01-31T11:29:08.243Z,65.43
2019-01-31T11:30:08.246Z,62.59
2019-01-31T11:31:08.252Z,61.74
2019-01-31T11:32:08.260Z,60.89
2019-01-31T11:33:08.271Z,61.33
2019-01-31T11:34:08.270Z,64.01
2019-01-31T11:35:08.278Z,64.73
2019-01-31T11:36:08.284Z,67.07
2019-01-31T11:37:08.289Z,69.52
2019-01-31T11:38:08.300Z,70.56
2019-01-31T11:39:08.304Z,74.81
2019-01-31T11:40:08.309Z,74.05
2019-01-31T11:41:08.314Z,71.09
2019-01-31T11:42:08.322Z,70.00
2019-01-31T11:43:11.878Z,69.37
2019-01-31T11:44:08.333Z,66.41
2019-01-31T11:45:08.341Z,67.00
2019-01-31T11:46:08.350Z,67.38
2019-01-31T11:47:08.358Z,66.16
2019-01-31T11:48:08.360Z,65.34
2019-01-31T11:49:08.370Z,64.39
2019-01-31T11:50:08.376Z,62.78
2019-01-31T11:51:08.379Z,60.11
2019-01-31T11:52:08.387Z,59.44
2019-01-31T11:53:08.392Z,60.67
2019-01-31T11:54:08.401Z,61.77
2019-01-31T11:55:08.409Z,63.29
2019-01-31T11:56:08.412Z,66.03
2019-01-31T11:57:08.422Z,66.75
2019-01-31T11:58:08.425Z,67.69
2019-01-31T11:59:08.436Z,68.48
2019-01-31T12:00:08.439Z,68.95
2019-01-31T12:01:08.449Z,67.63
2019-01-31T12:02:08.455Z,67.91
2019-01-31T12:03:08.459Z,67.88
2019-01-31T12:04:08.467Z,68.92
2019-01-31T12:05:08.473Z,69.71
2019-01-31T12:06:08.478Z,71.03
2019-01-31T12:07:08.487Z,69.90
2019-01-31T12:08:08.491Z,69.52
2019-01-31T12:09:08.497Z,68.61
2019-01-31T12:10:08.507Z,66.88
2019-01-31T12:11:08.512Z,66.44
2019-01-31T12:12:08.520Z,65.59
2019-01-31T12:13:08.531Z,63.98
2019-01-31T12:14:08.535Z,64.61
2019-01-31T12:15:08.538Z,65.93
2019-01-31T12:16:08.544Z,64.98
2019-01-31T12:17:08.551Z,65.46
2019-01-31T12:18:08.557Z,66.59
2019-01-31T12:19:08.569Z,65.65
2019-01-31T12:20:08.571Z,65.02
2019-01-31T12:21:08.577Z,64.92
2019-01-31T12:22:08.630Z,63.85
2019-01-31T12:23:08.592Z,64.61
2019-01-31T12:24:16.077Z,64.70
2019-01-31T12:25:08.604Z,64.92
2019-01-31T12:26:08.611Z,63.79
2019-01-31T12:27:08.619Z,63.10
2019-01-31T12:28:08.622Z,63.48
2019-01-31T12:29:08.629Z,64.51
2019-01-31T12:30:08.639Z,64.51
2019-01-31T12:31:08.643Z,64.42
2019-01-31T12:32:08.650Z,63.57
2019-01-31T12:33:08.657Z,64.26
2019-01-31T12:34:08.663Z,64.36
2019-01-31T12:35:08.676Z,62.15
2019-01-31T12:36:08.676Z,62.53
2019-01-31T12:37:08.688Z,62.69
2019-01-31T12:38:08.692Z,64.29
2019-01-31T12:39:08.696Z,65.14
2019-01-31T12:40:08.810Z,64.20
2019-01-31T12:41:08.715Z,63.67
2019-01-31T12:42:08.715Z,63.76
2019-01-31T12:43:08.723Z,61.52
2019-01-31T12:44:08.731Z,61.40
2019-01-31T12:45:08.734Z,60.74
2019-01-31T12:46:08.744Z,61.58
2019-01-31T12:47:08.749Z,62.15
2019-01-31T12:48:08.757Z,60.93
2019-01-31T12:49:08.762Z,60.20
2019-01-31T12:50:08.768Z,59.92
2019-01-31T12:51:08.776Z,59.19
2019-01-31T12:52:08.781Z,58.59